createdAt,value
2019-06-01T00:01:38.246Z,18.00
2019-06-01T00:04:11.416Z,17.80
2019-06-01T00:06:44.881Z,17.80
2019-06-01T00:09:17.552Z,17.80
2019-06-01T00:11:50.313Z,17.70
2019-06-01T00:14:22.878Z,17.70
2019-06-01T00:16:55.422Z,17.60
2019-06-01T00:19:27.947Z,17.50
2019-06-01T00:22:00.432Z,17.50
2019-06-01T00:24:33.189Z,17.50
2019-06-01T00:27:06.135Z,17.50
2019-06-01T00:29:38.823Z,17.40
2019-06-01T00:32:11.599Z,17.30
2019-06-01T00:34:44.206Z,17.30
2019-06-01T00:37:16.755Z,17.20
2019-06-01T00:39:51.959Z,17.30
2019-06-01T00:42:25.073Z,17.30
2019-06-01T00:44:57.649Z,17.40
2019-06-01T00:47:30.469Z,17.40
2019-06-01T00:50:03.118Z,17.50
2019-06-01T00:52:37.043Z,17.60
2019-06-01T00:55:36.847Z,17.70
2019-06-01T00:58:09.579Z,17.80
2019-06-01T01:00:44.196Z,17.80
2019-06-01T01:03:17.665Z,17.90
2019-06-01T01:05:50.690Z,17.90
2019-06-01T01:08:23.712Z,18.00
2019-06-01T01:10:56.165Z,18.10
2019-06-01T01:13:28.981Z,18.00
2019-06-01T01:16:01.514Z,17.80
2019-06-01T01:18:33.970Z,17.70
2019-06-01T01:21:06.683Z,17.60
2019-06-01T01:23:39.249Z,17.60
2019-06-01T01:26:11.816Z,17.40
2019-06-01T01:28:44.431Z,17.40
2019-06-01T01:31:16.794Z,17.40
2019-06-01T01:33:49.440Z,17.50
2019-06-01T01:36:22.226Z,17.60
2019-06-01T01:38:54.688Z,17.60
2019-06-01T01:41:27.652Z,17.60
2019-06-01T01:44:00.259Z,17.60
2019-06-01T01:46:33.796Z,17.60
2019-06-01T01:49:06.588Z,17.60
2019-06-01T01:51:39.010Z,17.60
2019-06-01T01:54:11.544Z,17.60
2019-06-01T01:56:43.787Z,17.70
2019-06-01T01:59:16.190Z,17.70
2019-06-01T02:01:48.956Z,17.70
2019-06-01T02:04:21.666Z,17.60
2019-06-01T02:06:54.432Z,17.60
2019-06-01T02:09:27.338Z,17.50
2019-06-01T02:11:59.720Z,17.50
2019-06-01T02:14:32.161Z,17.60
2019-06-01T02:17:05.359Z,17.60
2019-06-01T02:19:38.058Z,17.60
2019-06-01T02:22:10.797Z,17.60
2019-06-01T02:24:43.707Z,17.50
2019-06-01T02:27:16.683Z,17.50
2019-06-01T02:29:49.054Z,17.50
2019-06-01T02:32:21.596Z,17.50
2019-06-01T02:34:55.964Z,17.50
2019-06-01T02:37:28.690Z,17.50
2019-06-01T02:40:01.066Z,17.50
2019-06-01T02:42:35.619Z,17.50
2019-06-01T02:45:12.399Z,17.40
2019-06-01T02:47:45.107Z,17.50
2019-06-01T02:50:19.251Z,17.40
2019-06-01T02:52:52.003Z,17.40
2019-06-01T02:55:24.790Z,17.40
2019-06-01T02:57:58.051Z,17.40
2019-06-01T03:01:32.144Z,17.40
2019-06-01T03:04:08.470Z,17.40
2019-06-01T03:06:45.830Z,17.40
2019-06-01T03:09:21.536Z,17.40
2019-06-01T03:12:00.825Z,17.50
2019-06-01T03:14:37.947Z,17.50
2019-06-01T03:17:14.060Z,17.60
2019-06-01T03:19:50.073Z,17.60
2019-06-01T03:22:24.154Z,17.70
2019-06-01T03:25:02.047Z,17.70
2019-06-01T03:27:38.832Z,17.70
2019-06-01T03:30:15.575Z,17.70
2019-06-01T03:32:47.482Z,17.80
2019-06-01T03:35:20.274Z,17.80
2019-06-01T03:37:52.885Z,17.90
2019-06-01T03:40:25.817Z,18.10
2019-06-01T03:42:58.669Z,18.30
2019-06-01T03:45:31.304Z,18.50
2019-06-01T03:48:04.631Z,18.70
2019-06-01T03:50:37.341Z,18.80
2019-06-01T03:53:10.004Z,18.90
2019-06-01T03:55:42.644Z,19.10
2019-06-01T03:58:15.017Z,19.30
2019-06-01T04:00:47.829Z,19.40
2019-06-01T04:03:20.481Z,19.60
2019-06-01T04:05:52.880Z,19.70
2019-06-01T04:08:25.355Z,19.80
2019-06-01T04:10:57.719Z,19.80
2019-06-01T04:13:30.232Z,19.90
2019-06-01T04:16:03.713Z,20.20
2019-06-01T04:18:46.167Z,20.20
2019-06-01T04:21:18.708Z,20.20
2019-06-01T04:23:51.318Z,20.30
2019-06-01T04:26:23.732Z,20.40
2019-06-01T04:28:56.151Z,20.60
2019-06-01T04:31:28.754Z,20.80
2019-06-01T04:34:02.431Z,20.90
2019-06-01T04:36:35.516Z,21.00
2019-06-01T04:39:09.769Z,21.10
2019-06-01T04:41:42.378Z,21.10
2019-06-01T04:44:18.195Z,21.30
2019-06-01T04:46:49.273Z,21.40
2019-06-01T04:49:21.931Z,21.40
2019-06-01T04:51:54.763Z,21.60
2019-06-01T04:54:27.176Z,21.70
2019-06-01T04:56:59.990Z,22.00
2019-06-01T04:59:32.478Z,22.10
2019-06-01T05:02:07.248Z,22.30
2019-06-01T05:04:43.407Z,22.50
2019-06-01T05:07:15.407Z,22.50
2019-06-01T05:09:48.007Z,22.50
2019-06-01T05:12:20.893Z,22.70
2019-06-01T05:14:53.334Z,22.90
2019-06-01T05:17:26.172Z,22.80
2019-06-01T05:20:00.124Z,23.10
2019-06-01T05:22:32.828Z,23.10
2019-06-01T05:25:06.854Z,23.60
2019-06-01T05:27:39.666Z,23.70
2019-06-01T05:30:13.881Z,23.60
2019-06-01T05:32:48.679Z,23.90
2019-06-01T05:35:21.573Z,24.00
2019-06-01T05:37:54.212Z,24.00
2019-06-01T05:40:27.019Z,24.30
2019-06-01T05:42:59.572Z,24.50
2019-06-01T05:45:32.464Z,24.60
2019-06-01T05:48:05.268Z,24.30
2019-06-01T05:50:37.863Z,24.80
2019-06-01T05:53:10.660Z,25.10
2019-06-01T05:55:43.409Z,25.20
2019-06-01T05:58:17.257Z,25.20
2019-06-01T06:00:49.825Z,25.20
2019-06-01T06:03:39.272Z,25.30
2019-06-01T06:05:58.256Z,25.30
2019-06-01T06:08:30.844Z,25.30
2019-06-01T06:11:03.831Z,25.70
2019-06-01T06:13:37.168Z,25.60
2019-06-01T06:16:11.356Z,25.90
2019-06-01T06:18:44.208Z,26.10
2019-06-01T06:21:18.280Z,26.10
2019-06-01T06:23:51.477Z,26.30
2019-06-01T06:26:24.172Z,26.80
2019-06-01T06:28:56.697Z,26.80
2019-06-01T06:31:29.104Z,26.70
2019-06-01T06:34:01.688Z,27.00
2019-06-01T06:36:34.171Z,26.90
2019-06-01T06:39:08.792Z,27.40
2019-06-01T06:41:41.719Z,27.60
2019-06-01T06:44:14.527Z,27.80
2019-06-01T06:46:46.964Z,28.00
2019-06-01T06:49:19.690Z,28.30
2019-06-01T06:51:52.496Z,28.50
2019-06-01T06:54:26.043Z,28.70
2019-06-01T06:56:58.692Z,28.90
2019-06-01T06:59:31.264Z,28.90
2019-06-01T07:02:03.924Z,29.10
2019-06-01T07:04:36.699Z,29.10
2019-06-01T07:07:09.589Z,29.10
2019-06-01T07:09:42.404Z,28.80
2019-06-01T07:12:15.305Z,28.50
2019-06-01T07:14:48.101Z,28.10
2019-06-01T07:17:21.521Z,28.20
2019-06-01T07:19:53.843Z,28.60
2019-06-01T07:22:26.205Z,28.50
2019-06-01T07:24:58.692Z,29.10
2019-06-01T07:27:32.432Z,29.50
2019-06-01T07:30:05.200Z,29.20
2019-06-01T07:32:37.846Z,29.60
2019-06-01T07:35:11.981Z,29.80
2019-06-01T07:37:44.412Z,29.90
2019-06-01T07:40:17.495Z,29.70
2019-06-01T07:42:50.178Z,30.10
2019-06-01T07:45:22.999Z,30.00
2019-06-01T07:47:55.656Z,28.90
2019-06-01T07:50:28.811Z,29.30
2019-06-01T07:53:01.367Z,29.30
2019-06-01T07:55:34.047Z,28.70
2019-06-01T07:58:06.855Z,28.50
2019-06-01T08:00:39.307Z,28.80
2019-06-01T08:03:34.673Z,29.60
2019-06-01T08:06:18.456Z,28.50
2019-06-01T08:08:51.179Z,29.40
2019-06-01T08:11:28.572Z,28.70
2019-06-01T08:13:58.801Z,28.10
2019-06-01T08:16:45.222Z,27.50
2019-06-01T08:19:17.976Z,27.20
2019-06-01T08:22:43.834Z,27.40
2019-06-01T08:25:15.316Z,27.50
2019-06-01T08:28:06.383Z,27.30
2019-06-01T08:30:39.240Z,27.20
2019-06-01T08:33:11.936Z,27.60
2019-06-01T08:36:11.712Z,28.40
2019-06-01T08:38:48.486Z,28.90
2019-06-01T08:41:23.509Z,29.60
2019-06-01T08:44:48.770Z,30.30
2019-06-01T08:47:21.400Z,30.70
2019-06-01T08:50:05.872Z,31.10
2019-06-01T08:52:38.664Z,31.10
2019-06-01T08:55:11.891Z,31.10
2019-06-01T08:57:44.441Z,31.30
2019-06-01T09:00:17.293Z,31.40
2019-06-01T09:02:50.060Z,31.10
2019-06-01T09:05:25.840Z,31.60
2019-06-01T09:07:57.863Z,31.60
2019-06-01T09:10:31.454Z,31.70
2019-06-01T09:13:04.342Z,31.70
2019-06-01T09:15:37.034Z,31.70
2019-06-01T09:18:09.577Z,31.70
2019-06-01T09:20:42.172Z,31.80
2019-06-01T09:23:14.860Z,31.60
2019-06-01T09:25:47.342Z,31.50
2019-06-01T09:28:27.923Z,30.90
2019-06-01T09:31:00.071Z,31.00
2019-06-01T09:33:32.669Z,31.20
2019-06-01T09:36:05.412Z,31.60
2019-06-01T09:38:38.175Z,31.40
2019-06-01T09:41:14.795Z,31.60
2019-06-01T09:43:48.221Z,31.50
2019-06-01T09:46:20.750Z,30.10
2019-06-01T09:48:53.239Z,29.60
2019-06-01T09:51:27.365Z,29.00
2019-06-01T09:53:59.857Z,28.90
2019-06-01T09:56:35.212Z,28.60
2019-06-01T09:59:06.817Z,28.90
2019-06-01T10:01:39.927Z,29.00
2019-06-01T10:04:12.567Z,29.30
2019-06-01T10:06:45.289Z,29.60
2019-06-01T10:09:18.108Z,29.40
2019-06-01T10:11:50.728Z,29.10
2019-06-01T10:14:23.423Z,28.80
2019-06-01T10:16:57.015Z,28.90
2019-06-01T10:19:30.620Z,28.70
2019-06-01T10:22:03.822Z,28.90
2019-06-01T10:24:37.236Z,29.30
2019-06-01T10:27:11.228Z,29.50
2019-06-01T10:29:45.303Z,29.60
2019-06-01T10:32:18.936Z,29.60
2019-06-01T10:34:52.961Z,29.50
2019-06-01T10:37:25.883Z,29.30
2019-06-01T10:39:58.398Z,28.70
2019-06-01T10:42:32.716Z,29.30
2019-06-01T10:45:06.397Z,29.70
2019-06-01T10:47:42.985Z,29.50
2019-06-01T10:50:18.302Z,29.60
2019-06-01T10:52:51.626Z,29.60
2019-06-01T10:55:24.913Z,29.70
2019-06-01T10:57:57.864Z,29.50
2019-06-01T11:00:38.729Z,29.40
2019-06-01T11:03:06.314Z,29.10
2019-06-01T11:05:40.518Z,28.80
2019-06-01T11:08:13.503Z,28.60
2019-06-01T11:10:46.248Z,28.50
2019-06-01T11:13:18.844Z,28.30
2019-06-01T11:15:51.520Z,28.00
2019-06-01T11:18:24.322Z,28.10
2019-06-01T11:20:56.761Z,28.30
2019-06-01T11:23:29.699Z,28.30
2019-06-01T11:26:02.741Z,28.00
2019-06-01T11:28:36.165Z,28.10
2019-06-01T11:31:09.134Z,28.10
2019-06-01T11:33:42.157Z,27.90
2019-06-01T11:36:14.881Z,27.90
2019-06-01T11:38:47.326Z,27.80
2019-06-01T11:41:20.094Z,27.80
2019-06-01T11:43:52.819Z,27.60
2019-06-01T11:46:25.407Z,27.50
2019-06-01T11:48:57.908Z,27.50
2019-06-01T11:51:30.477Z,27.60
2019-06-01T11:54:03.337Z,27.50
2019-06-01T11:56:37.192Z,27.50
2019-06-01T11:59:10.023Z,27.50
2019-06-01T12:01:43.964Z,27.50
2019-06-01T12:04:16.653Z,27.50
2019-06-01T12:06:49.419Z,27.50
2019-06-01T12:09:21.838Z,27.30
2019-06-01T12:11:54.249Z,27.40
2019-06-01T12:14:27.726Z,27.40
2019-06-01T12:17:00.470Z,27.40
2019-06-01T12:19:33.138Z,27.40
2019-06-01T12:22:06.378Z,27.30
2019-06-01T12:24:40.947Z,27.30
2019-06-01T12:27:15.181Z,27.20
2019-06-01T12:29:52.675Z,27.20
2019-06-01T12:32:24.532Z,27.40
2019-06-01T12:34:56.967Z,27.30
2019-06-01T12:37:45.365Z,27.30
2019-06-01T12:40:07.435Z,27.30
2019-06-01T12:42:39.596Z,27.30
2019-06-01T12:45:22.856Z,27.10
2019-06-01T12:47:58.314Z,27.00
2019-06-01T12:50:29.073Z,27.00
2019-06-01T12:53:01.735Z,27.10
2019-06-01T12:55:34.446Z,27.10
2019-06-01T12:58:07.550Z,27.20
2019-06-01T13:00:40.419Z,27.40
2019-06-01T13:03:13.076Z,27.20
2019-06-01T13:05:45.720Z,27.20
2019-06-01T13:08:18.616Z,27.20
2019-06-01T13:10:51.979Z,27.20
2019-06-01T13:13:24.384Z,27.10
2019-06-01T13:15:57.329Z,27.10
2019-06-01T13:18:30.171Z,27.20
2019-06-01T13:21:02.883Z,27.20
2019-06-01T13:23:35.901Z,27.10
2019-06-01T13:26:08.571Z,26.90
2019-06-01T13:28:42.048Z,27.00
2019-06-01T13:31:14.485Z,26.90
2019-06-01T13:33:50.327Z,26.90
2019-06-01T13:36:21.298Z,26.80
2019-06-01T13:38:53.845Z,26.70
2019-06-01T13:41:26.337Z,26.50
2019-06-01T13:43:58.932Z,26.40
2019-06-01T13:46:31.764Z,26.40
2019-06-01T13:49:04.281Z,26.40
2019-06-01T13:51:36.960Z,26.60
2019-06-01T13:54:09.591Z,26.70
2019-06-01T13:56:42.125Z,26.70
2019-06-01T13:59:14.741Z,26.70
2019-06-01T14:01:48.689Z,26.80
2019-06-01T14:04:21.485Z,27.00
2019-06-01T14:06:55.541Z,26.90
2019-06-01T14:09:28.077Z,26.90
2019-06-01T14:12:01.115Z,26.90
2019-06-01T14:14:34.262Z,27.00
2019-06-01T14:17:06.835Z,27.00
2019-06-01T14:19:39.671Z,27.10
2019-06-01T14:22:12.446Z,26.90
2019-06-01T14:24:47.932Z,26.90
2019-06-01T14:27:19.333Z,26.90
2019-06-01T14:29:52.350Z,26.70
2019-06-01T14:32:24.990Z,26.90
2019-06-01T14:34:57.507Z,26.90
2019-06-01T14:37:30.095Z,26.90
2019-06-01T14:40:02.767Z,26.90
2019-06-01T14:42:35.718Z,26.80
2019-06-01T14:45:09.287Z,26.90
2019-06-01T14:47:42.166Z,26.90
2019-06-01T14:50:15.291Z,26.90
2019-06-01T14:52:49.461Z,27.00
2019-06-01T14:55:22.013Z,27.10
2019-06-01T14:57:55.922Z,27.00
2019-06-01T15:00:28.836Z,26.80
2019-06-01T15:03:01.343Z,26.60
2019-06-01T15:05:33.893Z,26.60
2019-06-01T15:08:18.637Z,26.50
2019-06-01T15:10:53.293Z,26.50
2019-06-01T15:13:25.898Z,26.40
2019-06-01T15:15:58.711Z,26.40
2019-06-01T15:18:31.293Z,26.40
2019-06-01T15:21:05.665Z,26.30
2019-06-01T15:23:38.139Z,26.20
2019-06-01T15:26:10.629Z,26.40
2019-06-01T15:28:43.268Z,26.30
2019-06-01T15:31:17.384Z,26.30
2019-06-01T15:33:51.108Z,26.30
2019-06-01T15:36:24.022Z,26.20
2019-06-01T15:38:57.890Z,26.20
2019-06-01T15:41:30.309Z,26.20
2019-06-01T15:44:02.874Z,26.20
2019-06-01T15:46:35.396Z,26.10
2019-06-01T15:49:07.713Z,26.20
2019-06-01T15:51:40.460Z,26.20
2019-06-01T15:54:12.971Z,26.10
2019-06-01T15:56:46.059Z,26.10
2019-06-01T15:59:18.507Z,26.10
2019-06-01T16:01:53.020Z,25.90
2019-06-01T16:04:25.730Z,25.90
2019-06-01T16:06:59.258Z,26.00
2019-06-01T16:09:42.116Z,26.00
2019-06-01T16:12:07.880Z,26.00
2019-06-01T16:14:40.693Z,26.00
2019-06-01T16:17:13.502Z,25.90
2019-06-01T16:19:46.275Z,25.80
2019-06-01T16:22:19.041Z,25.80
2019-06-01T16:24:51.556Z,25.80
2019-06-01T16:27:24.517Z,25.80
2019-06-01T16:30:00.185Z,25.80
2019-06-01T16:32:32.559Z,25.80
2019-06-01T16:35:05.652Z,25.80
2019-06-01T16:37:39.133Z,25.70
2019-06-01T16:40:12.184Z,25.70
2019-06-01T16:42:53.806Z,25.80
2019-06-01T16:45:26.481Z,25.80
2019-06-01T16:47:59.496Z,25.80
2019-06-01T16:50:32.159Z,25.70
2019-06-01T16:53:06.164Z,25.70
2019-06-01T16:55:39.038Z,25.60
2019-06-01T16:58:12.061Z,25.50
2019-06-01T17:00:56.383Z,25.50
2019-06-01T17:03:28.803Z,25.50
2019-06-01T17:06:02.891Z,25.50
2019-06-01T17:08:35.451Z,25.50
2019-06-01T17:11:08.273Z,25.40
2019-06-01T17:13:44.371Z,25.40
2019-06-01T17:16:16.883Z,25.40
2019-06-01T17:18:50.028Z,25.40
2019-06-01T17:21:22.548Z,25.30
2019-06-01T17:23:54.983Z,25.30
2019-06-01T17:26:27.456Z,25.30
2019-06-01T17:29:00.106Z,25.20
2019-06-01T17:31:32.493Z,25.10
2019-06-01T17:34:04.971Z,25.10
2019-06-01T17:36:39.277Z,25.00
2019-06-01T17:39:12.310Z,25.00
2019-06-01T17:41:44.757Z,25.00
2019-06-01T17:44:17.691Z,24.90
2019-06-01T17:46:53.867Z,24.80
2019-06-01T17:49:25.167Z,24.70
2019-06-01T17:51:58.144Z,24.70
2019-06-01T17:54:30.932Z,24.60
2019-06-01T17:57:03.684Z,24.60
2019-06-01T17:59:36.219Z,24.60
2019-06-01T18:02:09.889Z,24.50
2019-06-01T18:04:42.375Z,24.50
2019-06-01T18:07:15.999Z,24.50
2019-06-01T18:09:48.668Z,24.40
2019-06-01T18:12:21.160Z,24.40
2019-06-01T18:14:53.632Z,24.40
2019-06-01T18:17:26.480Z,24.40
2019-06-01T18:20:02.346Z,24.30
2019-06-01T18:22:35.526Z,24.20
2019-06-01T18:25:08.698Z,24.20
2019-06-01T18:27:41.141Z,24.20
2019-06-01T18:30:14.659Z,24.20
2019-06-01T18:32:47.188Z,24.10
2019-06-01T18:35:20.616Z,24.10
2019-06-01T18:37:53.455Z,24.00
2019-06-01T18:40:27.049Z,24.00
2019-06-01T18:43:06.045Z,23.80
2019-06-01T18:45:38.723Z,23.80
2019-06-01T18:48:12.378Z,23.80
2019-06-01T18:50:45.691Z,23.70
2019-06-01T18:53:18.438Z,23.70
2019-06-01T18:55:51.108Z,23.60
2019-06-01T18:58:24.294Z,23.50
2019-06-01T19:00:57.058Z,23.50
2019-06-01T19:03:29.636Z,23.40
2019-06-01T19:06:02.207Z,23.40
2019-06-01T19:08:34.752Z,23.30
2019-06-01T19:11:08.362Z,23.30
2019-06-01T19:13:41.075Z,23.30
2019-06-01T19:16:14.299Z,23.20
2019-06-01T19:18:47.007Z,23.20
2019-06-01T19:21:20.460Z,23.20
2019-06-01T19:23:53.488Z,23.20
2019-06-01T19:26:26.376Z,23.10
2019-06-01T19:28:59.380Z,23.10
2019-06-01T19:31:32.478Z,23.00
2019-06-01T19:34:04.948Z,23.00
2019-06-01T19:36:38.756Z,23.10
2019-06-01T19:39:13.260Z,23.00
2019-06-01T19:41:46.517Z,23.00
2019-06-01T19:44:19.056Z,22.90
2019-06-01T19:46:51.454Z,22.80
2019-06-01T19:49:23.928Z,22.80
2019-06-01T19:51:56.809Z,22.80
2019-06-01T19:54:29.600Z,22.90
2019-06-01T19:57:02.270Z,23.00
2019-06-01T19:59:34.812Z,22.90
2019-06-01T20:02:23.143Z,22.80
2019-06-01T20:04:42.100Z,22.80
2019-06-01T20:07:15.247Z,22.80
2019-06-01T20:09:47.739Z,22.60
2019-06-01T20:12:20.681Z,22.70
2019-06-01T20:14:53.405Z,22.60
2019-06-01T20:17:27.359Z,22.60
2019-06-01T20:20:00.813Z,22.60
2019-06-01T20:22:33.293Z,22.60
2019-06-01T20:25:06.470Z,22.70
2019-06-01T20:27:38.934Z,22.70
2019-06-01T20:30:15.673Z,22.60
2019-06-01T20:32:48.424Z,22.60
2019-06-01T20:35:22.100Z,22.50
2019-06-01T20:37:55.128Z,22.50
2019-06-01T20:40:28.027Z,22.50
2019-06-01T20:43:00.512Z,22.50
2019-06-01T20:45:32.877Z,22.50
2019-06-01T20:48:05.634Z,22.50
2019-06-01T20:50:38.203Z,22.50
2019-06-01T20:53:10.903Z,22.60
2019-06-01T20:55:43.835Z,22.60
2019-06-01T20:58:19.494Z,22.60
2019-06-01T21:00:51.595Z,22.70
2019-06-01T21:03:24.438Z,22.60
2019-06-01T21:05:57.118Z,22.70
2019-06-01T21:08:30.386Z,22.70
2019-06-01T21:11:02.930Z,22.70
2019-06-01T21:13:35.381Z,22.70
2019-06-01T21:16:08.178Z,22.70
2019-06-01T21:18:41.096Z,22.60
2019-06-01T21:21:14.284Z,22.60
2019-06-01T21:23:46.887Z,22.70
2019-06-01T21:26:21.110Z,22.70
2019-06-01T21:28:54.142Z,22.70
2019-06-01T21:31:26.732Z,22.70
2019-06-01T21:33:59.334Z,22.60
2019-06-01T21:36:32.028Z,22.50
2019-06-01T21:39:05.885Z,22.50
2019-06-01T21:41:38.354Z,22.50
2019-06-01T21:44:10.835Z,22.40
2019-06-01T21:46:43.329Z,22.40
2019-06-01T21:49:17.570Z,22.40
2019-06-01T21:51:52.913Z,22.50
2019-06-01T21:54:24.713Z,22.50
2019-06-01T21:56:57.412Z,22.50
2019-06-01T21:59:30.147Z,22.50
2019-06-01T22:02:02.885Z,22.40
2019-06-01T22:04:35.620Z,22.40
2019-06-01T22:07:08.639Z,22.30
2019-06-01T22:09:41.303Z,22.30
2019-06-01T22:12:13.871Z,22.30
2019-06-01T22:14:46.193Z,22.30
2019-06-01T22:17:20.340Z,22.30
2019-06-01T22:19:53.697Z,22.20
2019-06-01T22:22:28.051Z,22.20
2019-06-01T22:25:00.951Z,22.20
2019-06-01T22:27:33.440Z,22.10
2019-06-01T22:30:06.966Z,22.10
2019-06-01T22:32:39.824Z,22.10
2019-06-01T22:35:12.477Z,22.10
2019-06-01T22:37:45.034Z,22.00
2019-06-01T22:40:19.244Z,22.00
2019-06-01T22:42:51.993Z,21.90
2019-06-01T22:45:24.913Z,21.90
2019-06-01T22:47:57.420Z,21.90
2019-06-01T22:50:30.096Z,22.00
2019-06-01T22:53:02.933Z,22.00
2019-06-01T22:55:35.647Z,22.00
2019-06-01T22:58:08.604Z,22.00
2019-06-01T23:00:41.019Z,22.00
2019-06-01T23:03:13.703Z,21.90
2019-06-01T23:05:46.316Z,21.90
2019-06-01T23:08:18.650Z,21.80
2019-06-01T23:10:51.708Z,21.90
2019-06-01T23:13:24.323Z,21.90
2019-06-01T23:15:56.910Z,21.90
2019-06-01T23:18:29.889Z,21.90
2019-06-01T23:21:02.814Z,21.80
2019-06-01T23:23:35.237Z,21.80
2019-06-01T23:26:07.796Z,21.90
2019-06-01T23:28:40.322Z,21.80
2019-06-01T23:31:13.593Z,21.70
2019-06-01T23:33:46.537Z,21.60
2019-06-01T23:36:19.215Z,21.50
2019-06-01T23:38:52.190Z,21.40
2019-06-01T23:41:24.936Z,21.40
2019-06-01T23:44:11.167Z,21.40
2019-06-01T23:46:33.466Z,21.50
2019-06-01T23:49:06.141Z,21.50
2019-06-01T23:51:38.722Z,21.50
2019-06-01T23:54:11.779Z,21.50
2019-06-01T23:56:44.237Z,21.50
2019-06-01T23:59:17.153Z,21.40
